createdAt,value
2018-09-17T00:01:12.865Z,87.50
2018-09-17T00:03:41.486Z,87.70
2018-09-17T00:06:10.093Z,87.50
2018-09-17T00:08:38.684Z,87.60
2018-09-17T00:11:07.259Z,87.50
2018-09-17T00:13:35.820Z,87.40
2018-09-17T00:16:04.436Z,87.40
2018-09-17T00:18:33.015Z,87.60
2018-09-17T00:21:01.610Z,87.70
2018-09-17T00:23:30.191Z,88.00
2018-09-17T00:25:58.795Z,88.30
2018-09-17T00:28:27.348Z,88.30
2018-09-17T00:30:55.936Z,88.30
2018-09-17T00:33:24.508Z,88.40
2018-09-17T00:35:53.071Z,88.50
2018-09-17T00:38:21.643Z,88.50
2018-09-17T00:40:50.235Z,88.40
2018-09-17T00:43:18.890Z,88.30
2018-09-17T00:45:47.514Z,88.40
2018-09-17T00:48:16.118Z,88.50
2018-09-17T00:50:44.686Z,88.70
2018-09-17T00:53:13.295Z,88.80
2018-09-17T00:55:41.841Z,88.70
2018-09-17T00:58:10.432Z,88.80
2018-09-17T01:00:39.047Z,89.00
2018-09-17T01:03:07.651Z,89.00
2018-09-17T01:05:36.303Z,89.00
2018-09-17T01:08:04.933Z,89.20
2018-09-17T01:10:33.469Z,89.30
2018-09-17T01:13:02.020Z,89.30
2018-09-17T01:15:30.640Z,89.20
2018-09-17T01:17:59.212Z,89.50
2018-09-17T01:20:27.807Z,89.60
2018-09-17T01:22:56.424Z,89.70
2018-09-17T01:25:25.008Z,89.80
2018-09-17T01:27:53.609Z,89.80
2018-09-17T01:30:22.214Z,89.80
2018-09-17T01:32:50.767Z,89.70
2018-09-17T01:35:19.435Z,89.60
2018-09-17T01:37:48.033Z,89.50
2018-09-17T01:40:16.596Z,89.60
2018-09-17T01:42:45.289Z,89.70
2018-09-17T01:45:13.874Z,89.70
2018-09-17T01:47:42.447Z,89.90
2018-09-17T01:50:11.047Z,90.10
2018-09-17T01:52:39.604Z,90.00
2018-09-17T01:55:08.173Z,90.10
2018-09-17T01:57:36.752Z,90.20
2018-09-17T02:00:05.523Z,90.20
2018-09-17T02:02:34.132Z,90.20
2018-09-17T02:05:02.716Z,90.30
2018-09-17T02:07:31.347Z,90.40
2018-09-17T02:10:00.011Z,90.50
2018-09-17T02:12:28.534Z,90.50
2018-09-17T02:14:57.237Z,90.60
2018-09-17T02:17:25.868Z,90.50
2018-09-17T02:19:54.447Z,90.60
2018-09-17T02:22:23.047Z,90.50
2018-09-17T02:24:51.658Z,90.50
2018-09-17T02:27:20.291Z,90.60
2018-09-17T02:29:48.895Z,90.70
2018-09-17T02:32:17.474Z,90.60
2018-09-17T02:34:46.034Z,90.60
2018-09-17T02:37:14.631Z,90.70
2018-09-17T02:39:43.191Z,90.40
2018-09-17T02:42:11.782Z,90.80
2018-09-17T02:44:40.414Z,90.70
2018-09-17T02:47:09.009Z,90.80
2018-09-17T02:49:37.578Z,90.80
2018-09-17T02:52:06.228Z,90.80
2018-09-17T02:54:34.768Z,91.00
2018-09-17T02:57:03.399Z,91.00
2018-09-17T02:59:32.054Z,91.00
2018-09-17T03:02:00.617Z,91.10
2018-09-17T03:04:29.234Z,91.20
2018-09-17T03:06:57.837Z,91.20
2018-09-17T03:09:26.442Z,91.30
2018-09-17T03:11:55.004Z,91.30
2018-09-17T03:14:29.559Z,91.30
2018-09-17T03:17:06.322Z,91.30
2018-09-17T03:19:35.015Z,91.30
2018-09-17T03:22:03.569Z,91.30
2018-09-17T03:24:32.188Z,91.40
2018-09-17T03:27:00.831Z,91.40
2018-09-17T03:29:29.432Z,91.40
2018-09-17T03:31:58.059Z,91.40
2018-09-17T03:34:26.853Z,91.40
2018-09-17T03:36:55.402Z,91.40
2018-09-17T03:39:24.000Z,91.40
2018-09-17T03:41:52.689Z,91.50
2018-09-17T03:44:21.292Z,91.50
2018-09-17T03:46:49.977Z,91.50
2018-09-17T03:49:18.457Z,91.60
2018-09-17T03:51:47.046Z,91.50
2018-09-17T03:54:15.631Z,91.50
2018-09-17T03:56:44.274Z,91.70
2018-09-17T03:59:12.853Z,91.70
2018-09-17T04:01:41.518Z,91.70
2018-09-17T04:04:10.112Z,91.90
2018-09-17T04:06:38.758Z,91.90
2018-09-17T04:09:08.194Z,92.00
2018-09-17T04:11:36.806Z,92.00
2018-09-17T04:14:05.495Z,92.10
2018-09-17T04:16:34.058Z,92.10
2018-09-17T04:19:02.717Z,92.20
2018-09-17T04:21:31.264Z,92.20
2018-09-17T04:23:59.801Z,92.20
2018-09-17T04:26:28.415Z,92.30
2018-09-17T04:28:56.980Z,92.20
2018-09-17T04:31:26.141Z,92.20
2018-09-17T04:33:54.747Z,92.20
2018-09-17T04:36:23.353Z,92.30
2018-09-17T04:38:51.995Z,92.30
2018-09-17T04:41:20.609Z,92.20
2018-09-17T04:43:49.211Z,92.30
2018-09-17T04:46:17.783Z,92.30
2018-09-17T04:48:46.438Z,92.40
2018-09-17T04:51:15.004Z,92.40
2018-09-17T04:53:43.627Z,92.40
2018-09-17T04:56:12.283Z,92.50
2018-09-17T04:58:40.890Z,92.50
2018-09-17T05:01:09.492Z,92.50
2018-09-17T05:03:38.102Z,92.60
2018-09-17T05:06:06.821Z,92.50
2018-09-17T05:08:35.477Z,92.50
2018-09-17T05:11:04.097Z,92.70
2018-09-17T05:13:32.705Z,92.60
2018-09-17T05:16:01.284Z,92.70
2018-09-17T05:18:29.907Z,92.90
2018-09-17T05:20:58.473Z,92.80
2018-09-17T05:23:27.023Z,92.80
2018-09-17T05:25:55.662Z,92.90
2018-09-17T05:28:24.311Z,92.80
2018-09-17T05:30:52.886Z,92.90
2018-09-17T05:33:21.492Z,92.90
2018-09-17T05:35:50.073Z,92.90
2018-09-17T05:38:18.681Z,93.00
2018-09-17T05:40:47.278Z,93.10
2018-09-17T05:43:15.812Z,93.30
2018-09-17T05:45:44.448Z,93.40
2018-09-17T05:48:13.091Z,93.50
2018-09-17T05:50:41.683Z,93.60
2018-09-17T05:53:10.310Z,93.60
2018-09-17T05:55:38.927Z,93.70
2018-09-17T05:58:07.562Z,93.60
2018-09-17T06:00:36.247Z,93.60
2018-09-17T06:03:04.909Z,93.70
2018-09-17T06:05:33.534Z,94.00
2018-09-17T06:08:02.089Z,93.70
2018-09-17T06:10:30.708Z,93.50
2018-09-17T06:12:59.269Z,93.50
2018-09-17T06:15:27.910Z,93.40
2018-09-17T06:17:56.546Z,93.20
2018-09-17T06:20:25.158Z,93.00
2018-09-17T06:22:53.804Z,92.80
2018-09-17T06:25:23.371Z,92.60
2018-09-17T06:27:51.982Z,92.60
2018-09-17T06:30:20.565Z,92.40
2018-09-17T06:32:49.183Z,92.60
2018-09-17T06:35:17.829Z,92.40
2018-09-17T06:37:46.392Z,92.40
2018-09-17T06:40:15.048Z,92.60
2018-09-17T06:42:43.622Z,92.60
2018-09-17T06:45:12.278Z,92.60
2018-09-17T06:47:40.882Z,92.70
2018-09-17T06:50:09.475Z,92.80
2018-09-17T06:52:38.043Z,93.20
2018-09-17T06:55:06.698Z,93.00
2018-09-17T06:57:35.303Z,92.90
2018-09-17T07:00:04.076Z,93.00
2018-09-17T07:02:35.682Z,93.00
2018-09-17T07:05:04.827Z,92.70
2018-09-17T07:07:33.441Z,92.70
2018-09-17T07:10:02.181Z,92.60
2018-09-17T07:12:30.775Z,92.60
2018-09-17T07:14:59.414Z,92.30
2018-09-17T07:17:28.086Z,92.20
2018-09-17T07:19:56.672Z,92.00
2018-09-17T07:22:25.573Z,91.70
2018-09-17T07:24:54.180Z,91.70
2018-09-17T07:27:23.500Z,91.50
2018-09-17T07:29:52.400Z,91.40
2018-09-17T07:32:21.247Z,91.40
2018-09-17T07:34:49.841Z,91.40
2018-09-17T07:37:18.504Z,91.50
2018-09-17T07:39:47.117Z,91.50
2018-09-17T07:42:15.706Z,91.40
2018-09-17T07:44:44.338Z,91.30
2018-09-17T07:47:12.950Z,91.50
2018-09-17T07:49:41.554Z,91.80
2018-09-17T07:52:10.215Z,91.80
2018-09-17T07:54:38.816Z,91.80
2018-09-17T07:57:07.446Z,91.70
2018-09-17T07:59:36.066Z,91.30
2018-09-17T08:02:04.687Z,91.20
2018-09-17T08:04:33.278Z,91.20
2018-09-17T08:07:02.493Z,91.00
2018-09-17T08:09:31.078Z,90.70
2018-09-17T08:11:59.732Z,90.50
2018-09-17T08:14:28.354Z,90.30
2018-09-17T08:16:56.986Z,90.20
2018-09-17T08:19:25.559Z,90.40
2018-09-17T08:21:54.301Z,90.00
2018-09-17T08:24:22.911Z,90.00
2018-09-17T08:26:51.558Z,90.00
2018-09-17T08:29:20.144Z,90.40
2018-09-17T08:31:48.735Z,90.10
2018-09-17T08:34:17.442Z,90.20
2018-09-17T08:36:46.116Z,90.50
2018-09-17T08:39:15.242Z,90.50
2018-09-17T08:41:43.909Z,90.20
2018-09-17T08:44:12.827Z,90.10
2018-09-17T08:46:41.466Z,90.10
2018-09-17T08:49:10.083Z,90.00
2018-09-17T08:51:38.865Z,89.40
2018-09-17T08:54:07.440Z,88.90
2018-09-17T08:56:41.426Z,88.80
2018-09-17T08:59:15.346Z,88.10
2018-09-17T09:01:49.346Z,87.90
2018-09-17T09:04:23.189Z,87.40
2018-09-17T09:06:57.162Z,86.60
2018-09-17T09:09:25.739Z,86.60
2018-09-17T09:12:04.646Z,86.90
2018-09-17T09:14:38.212Z,86.90
2018-09-17T09:17:08.193Z,86.70
2018-09-17T09:19:36.894Z,87.10
2018-09-17T09:22:05.454Z,86.50
2018-09-17T09:24:34.172Z,86.20
2018-09-17T09:27:02.832Z,85.70
2018-09-17T09:29:31.496Z,85.00
2018-09-17T09:32:00.133Z,86.00
2018-09-17T09:34:28.738Z,85.90
2018-09-17T09:36:57.339Z,85.00
2018-09-17T09:39:25.943Z,84.70
2018-09-17T09:41:54.652Z,85.20
2018-09-17T09:44:23.214Z,85.10
2018-09-17T09:46:51.823Z,85.00
2018-09-17T09:49:20.411Z,85.10
2018-09-17T09:51:49.012Z,85.10
2018-09-17T09:54:17.649Z,84.80
2018-09-17T09:56:46.249Z,84.00
2018-09-17T09:59:14.898Z,83.30
2018-09-17T10:01:48.857Z,82.50
2018-09-17T10:04:22.605Z,83.10
2018-09-17T10:06:52.550Z,81.40
2018-09-17T10:09:26.431Z,81.20
2018-09-17T10:12:00.364Z,81.40
2018-09-17T10:14:34.136Z,81.40
2018-09-17T10:17:08.159Z,82.10
2018-09-17T10:19:40.930Z,82.20
2018-09-17T10:22:09.576Z,81.60
2018-09-17T10:24:38.170Z,81.30
2018-09-17T10:27:07.526Z,80.20
2018-09-17T10:29:36.166Z,80.30
2018-09-17T10:32:04.744Z,80.40
2018-09-17T10:34:33.381Z,79.70
2018-09-17T10:37:02.067Z,80.70
2018-09-17T10:39:30.776Z,80.50
2018-09-17T10:41:59.382Z,79.00
2018-09-17T10:44:27.983Z,78.60
2018-09-17T10:46:56.651Z,78.30
2018-09-17T10:49:25.249Z,78.30
2018-09-17T10:51:53.873Z,78.50
2018-09-17T10:54:22.478Z,77.10
2018-09-17T10:56:52.015Z,76.90
2018-09-17T10:59:20.648Z,77.30
2018-09-17T11:01:49.259Z,77.90
2018-09-17T11:04:17.853Z,76.10
2018-09-17T11:06:47.254Z,75.20
2018-09-17T11:09:15.872Z,75.50
2018-09-17T11:11:44.485Z,75.30
2018-09-17T11:14:13.137Z,75.10
2018-09-17T11:16:41.758Z,74.00
2018-09-17T11:19:10.422Z,73.30
2018-09-17T11:21:39.207Z,71.80
2018-09-17T11:24:08.131Z,70.70
2018-09-17T11:26:36.911Z,70.20
2018-09-17T11:29:05.752Z,69.40
2018-09-17T11:31:34.525Z,69.60
2018-09-17T11:34:03.303Z,69.00
2018-09-17T11:36:31.907Z,68.80
2018-09-17T11:39:00.562Z,68.80
2018-09-17T11:41:29.183Z,68.90
2018-09-17T11:43:57.851Z,68.30
2018-09-17T11:46:26.474Z,67.90
2018-09-17T11:48:55.098Z,67.70
2018-09-17T11:51:23.718Z,67.40
2018-09-17T11:53:52.333Z,67.20
2018-09-17T11:56:20.927Z,67.20
2018-09-17T11:58:49.547Z,66.90
2018-09-17T12:01:23.393Z,66.60
2018-09-17T12:03:57.178Z,65.10
2018-09-17T12:06:31.170Z,63.30
2018-09-17T12:08:59.881Z,62.60
2018-09-17T12:11:28.498Z,61.80
2018-09-17T12:13:57.083Z,61.80
2018-09-17T12:16:25.793Z,61.60
2018-09-17T12:18:54.458Z,59.40
2018-09-17T12:21:23.072Z,58.90
2018-09-17T12:23:51.735Z,58.20
2018-09-17T12:26:20.345Z,58.10
2018-09-17T12:28:49.010Z,57.10
2018-09-17T12:31:17.662Z,53.80
2018-09-17T12:33:46.386Z,50.50
2018-09-17T12:36:15.007Z,47.00
2018-09-17T12:38:43.640Z,43.70
2018-09-17T12:41:12.334Z,39.60
2018-09-17T12:43:40.983Z,37.60
2018-09-17T12:46:10.228Z,36.80
2018-09-17T12:48:38.845Z,34.00
2018-09-17T12:51:07.462Z,33.00
2018-09-17T12:53:36.348Z,31.30
2018-09-17T12:56:05.019Z,30.90
2018-09-17T12:58:33.620Z,30.10
2018-09-17T13:01:02.301Z,30.20
2018-09-17T13:03:30.906Z,29.80
2018-09-17T13:05:59.497Z,28.80
2018-09-17T13:08:28.159Z,28.70
2018-09-17T13:10:56.817Z,28.90
2018-09-17T13:13:25.454Z,27.90
2018-09-17T13:15:55.224Z,27.90
2018-09-17T13:18:25.414Z,26.80
2018-09-17T13:20:54.060Z,26.10
2018-09-17T13:23:22.728Z,25.70
2018-09-17T13:25:51.352Z,26.10
2018-09-17T13:28:20.004Z,25.00
2018-09-17T13:30:48.622Z,24.80
2018-09-17T13:33:17.277Z,24.20
2018-09-17T13:35:45.951Z,24.00
2018-09-17T13:38:14.613Z,23.80
2018-09-17T13:40:43.288Z,23.90
2018-09-17T13:43:11.921Z,23.80
2018-09-17T13:45:40.586Z,23.30
2018-09-17T13:48:09.240Z,23.10
2018-09-17T13:50:37.866Z,23.00
2018-09-17T13:53:06.583Z,22.70
2018-09-17T13:55:35.166Z,22.70
2018-09-17T13:58:03.791Z,22.70
2018-09-17T14:00:32.489Z,22.50
2018-09-17T14:03:01.100Z,22.70
2018-09-17T14:05:29.685Z,22.60
2018-09-17T14:07:58.385Z,23.00
2018-09-17T14:10:27.102Z,22.90
2018-09-17T14:12:55.785Z,22.30
2018-09-17T14:15:24.413Z,22.60
2018-09-17T14:17:53.038Z,22.50
2018-09-17T14:20:21.647Z,22.00
2018-09-17T14:22:50.320Z,22.00
2018-09-17T14:25:18.963Z,21.90
2018-09-17T14:27:47.577Z,22.20
2018-09-17T14:30:16.239Z,21.80
2018-09-17T14:32:50.159Z,22.60
2018-09-17T14:35:18.917Z,23.50
2018-09-17T14:37:47.492Z,25.30
2018-09-17T14:40:16.099Z,26.40
2018-09-17T14:42:44.804Z,26.80
2018-09-17T14:45:13.436Z,27.40
2018-09-17T14:47:42.059Z,28.60
2018-09-17T14:50:10.848Z,29.50
2018-09-17T14:52:39.460Z,29.90
2018-09-17T14:55:08.102Z,30.70
2018-09-17T14:57:36.737Z,30.80
2018-09-17T15:00:05.423Z,31.80
2018-09-17T15:02:34.070Z,31.80
2018-09-17T15:05:02.775Z,32.70
2018-09-17T15:07:31.398Z,32.90
2018-09-17T15:10:00.187Z,33.80
2018-09-17T15:12:28.863Z,34.10
2018-09-17T15:14:57.622Z,33.40
2018-09-17T15:17:26.206Z,33.40
2018-09-17T15:19:54.878Z,33.60
2018-09-17T15:22:23.566Z,34.10
2018-09-17T15:24:52.175Z,34.20
2018-09-17T15:27:20.860Z,34.20
2018-09-17T15:29:49.516Z,35.00
2018-09-17T15:32:18.207Z,35.30
2018-09-17T15:34:46.887Z,35.00
2018-09-17T15:37:15.527Z,35.00
2018-09-17T15:39:44.943Z,34.60
2018-09-17T15:42:13.615Z,34.70
2018-09-17T15:44:42.231Z,34.80
2018-09-17T15:47:10.862Z,35.60
2018-09-17T15:49:39.537Z,35.40
2018-09-17T15:52:08.195Z,35.70
2018-09-17T15:54:36.783Z,35.80
2018-09-17T15:57:05.489Z,35.50
2018-09-17T15:59:34.091Z,36.10
2018-09-17T16:02:02.720Z,36.70
2018-09-17T16:04:31.379Z,36.50
2018-09-17T16:06:59.968Z,37.30
2018-09-17T16:09:28.556Z,37.80
2018-09-17T16:11:57.240Z,38.40
2018-09-17T16:14:25.838Z,37.70
2018-09-17T16:16:54.422Z,38.00
2018-09-17T16:19:23.047Z,39.10
2018-09-17T16:21:51.686Z,38.90
2018-09-17T16:24:20.409Z,38.60
2018-09-17T16:26:49.041Z,39.10
2018-09-17T16:29:17.668Z,39.40
2018-09-17T16:31:46.381Z,39.60
2018-09-17T16:34:15.056Z,39.40
2018-09-17T16:36:43.673Z,39.80
2018-09-17T16:39:12.265Z,39.60
2018-09-17T16:41:42.172Z,40.00
2018-09-17T16:44:10.728Z,40.30
2018-09-17T16:46:39.431Z,40.40
2018-09-17T16:49:08.103Z,41.20
2018-09-17T16:51:36.754Z,41.10
2018-09-17T16:54:05.391Z,41.30
2018-09-17T16:56:34.129Z,41.60
2018-09-17T16:59:02.825Z,41.70
2018-09-17T17:01:31.485Z,42.10
2018-09-17T17:04:00.135Z,42.60
2018-09-17T17:06:28.764Z,43.40
2018-09-17T17:08:57.330Z,43.40
2018-09-17T17:11:25.982Z,43.50
2018-09-17T17:13:54.590Z,43.90
2018-09-17T17:16:23.280Z,44.30
2018-09-17T17:18:52.024Z,44.60
2018-09-17T17:21:20.562Z,44.80
2018-09-17T17:23:49.224Z,45.50
2018-09-17T17:26:17.938Z,46.30
2018-09-17T17:28:46.616Z,46.90
2018-09-17T17:31:15.239Z,47.70
2018-09-17T17:33:43.920Z,48.30
2018-09-17T17:36:12.540Z,49.10
2018-09-17T17:38:41.202Z,50.10
2018-09-17T17:41:09.880Z,50.50
2018-09-17T17:43:38.554Z,50.60
2018-09-17T17:46:07.490Z,51.00
2018-09-17T17:48:36.188Z,51.70
2018-09-17T17:51:04.867Z,51.90
2018-09-17T17:53:33.528Z,52.20
2018-09-17T17:56:02.348Z,52.60
2018-09-17T17:58:31.031Z,53.00
2018-09-17T18:00:59.674Z,53.50
2018-09-17T18:03:28.313Z,53.60
2018-09-17T18:05:56.974Z,54.10
2018-09-17T18:08:25.592Z,54.40
2018-09-17T18:10:54.491Z,54.60
2018-09-17T18:13:23.177Z,55.10
2018-09-17T18:15:51.885Z,55.40
2018-09-17T18:18:20.532Z,55.80
2018-09-17T18:20:49.218Z,56.00
2018-09-17T18:23:17.926Z,56.20
2018-09-17T18:25:46.689Z,56.50
2018-09-17T18:28:15.309Z,56.70
2018-09-17T18:30:43.954Z,56.80
2018-09-17T18:33:12.612Z,57.10
2018-09-17T18:35:41.268Z,57.40
2018-09-17T18:38:09.889Z,57.70
2018-09-17T18:40:38.551Z,58.20
2018-09-17T18:43:07.218Z,58.70
2018-09-17T18:45:35.855Z,59.00
2018-09-17T18:48:04.667Z,59.20
2018-09-17T18:50:33.377Z,59.50
2018-09-17T18:53:02.004Z,59.60
2018-09-17T18:55:30.643Z,59.70
2018-09-17T18:57:59.282Z,60.10
2018-09-17T19:00:27.909Z,60.40
2018-09-17T19:02:56.639Z,60.80
2018-09-17T19:05:25.217Z,61.30
2018-09-17T19:07:53.860Z,61.50
2018-09-17T19:10:22.540Z,61.90
2018-09-17T19:12:51.190Z,62.60
2018-09-17T19:15:25.298Z,62.60
2018-09-17T19:17:54.005Z,62.90
2018-09-17T19:20:22.685Z,62.90
2018-09-17T19:22:56.704Z,62.90
2018-09-17T19:25:25.421Z,62.70
2018-09-17T19:27:59.487Z,63.00
2018-09-17T19:30:28.089Z,63.40
2018-09-17T19:32:56.747Z,63.80
2018-09-17T19:35:25.399Z,64.10
2018-09-17T19:37:59.325Z,64.60
2018-09-17T19:40:27.984Z,65.00
2018-09-17T19:42:56.614Z,66.10
2018-09-17T19:45:30.513Z,65.70
2018-09-17T19:47:59.245Z,66.00
2018-09-17T19:50:33.085Z,66.20
2018-09-17T19:53:01.732Z,66.50
2018-09-17T19:55:30.384Z,66.70
2018-09-17T19:58:04.316Z,66.80
2018-09-17T20:00:33.146Z,67.10
2018-09-17T20:03:01.706Z,67.30
2018-09-17T20:05:35.853Z,67.50
2018-09-17T20:08:04.496Z,67.50
2018-09-17T20:10:33.218Z,67.80
2018-09-17T20:13:01.890Z,67.90
2018-09-17T20:15:30.494Z,68.10
2018-09-17T20:17:59.092Z,68.30
2018-09-17T20:20:27.802Z,68.70
2018-09-17T20:22:56.626Z,69.80
2018-09-17T20:25:25.270Z,69.20
2018-09-17T20:27:53.935Z,69.30
2018-09-17T20:30:22.569Z,69.20
2018-09-17T20:32:51.409Z,70.00
2018-09-17T20:35:20.445Z,69.80
2018-09-17T20:37:49.072Z,70.10
2018-09-17T20:40:17.686Z,70.10
2018-09-17T20:42:46.323Z,70.20
2018-09-17T20:45:14.942Z,70.20
2018-09-17T20:47:43.569Z,70.10
2018-09-17T20:50:12.252Z,70.20
2018-09-17T20:52:40.912Z,70.20
2018-09-17T20:55:09.530Z,70.20
2018-09-17T20:57:38.193Z,70.40
2018-09-17T21:00:07.998Z,70.40
2018-09-17T21:02:36.672Z,70.30
2018-09-17T21:05:06.340Z,70.40
2018-09-17T21:07:35.034Z,70.30
2018-09-17T21:10:03.695Z,70.70
2018-09-17T21:12:32.431Z,71.10
2018-09-17T21:15:00.991Z,71.40
2018-09-17T21:17:30.468Z,71.40
2018-09-17T21:19:59.235Z,71.40
2018-09-17T21:22:27.830Z,71.80
2018-09-17T21:24:57.709Z,71.80
2018-09-17T21:27:26.766Z,71.80
2018-09-17T21:29:55.370Z,72.10
2018-09-17T21:32:23.924Z,72.10
2018-09-17T21:34:52.554Z,72.10
2018-09-17T21:37:21.253Z,72.10
2018-09-17T21:39:49.767Z,72.10
2018-09-17T21:42:20.429Z,72.30
2018-09-17T21:44:49.063Z,72.20
2018-09-17T21:47:17.715Z,72.40
2018-09-17T21:49:46.316Z,72.90
2018-09-17T21:52:14.973Z,73.10
2018-09-17T21:54:43.568Z,73.20
2018-09-17T21:57:12.199Z,73.50
2018-09-17T21:59:40.774Z,73.60
2018-09-17T22:02:09.385Z,73.60
2018-09-17T22:04:38.044Z,73.70
2018-09-17T22:07:06.671Z,73.70
2018-09-17T22:09:35.314Z,74.60
2018-09-17T22:12:03.972Z,74.00
2018-09-17T22:14:32.590Z,74.10
2018-09-17T22:17:01.203Z,74.20
2018-09-17T22:19:29.901Z,74.30
2018-09-17T22:21:58.506Z,74.40
2018-09-17T22:24:27.120Z,74.40
2018-09-17T22:26:55.757Z,74.50
2018-09-17T22:29:24.384Z,74.80
2018-09-17T22:31:54.000Z,74.80
2018-09-17T22:34:22.616Z,74.80
2018-09-17T22:36:51.669Z,74.90
2018-09-17T22:39:20.254Z,74.90
2018-09-17T22:41:49.556Z,75.00
2018-09-17T22:44:18.185Z,75.00
2018-09-17T22:46:46.783Z,75.10
2018-09-17T22:49:15.387Z,75.10
2018-09-17T22:51:44.158Z,75.50
2018-09-17T22:54:12.786Z,75.80
2018-09-17T22:56:41.452Z,76.00
2018-09-17T22:59:10.130Z,76.20
2018-09-17T23:01:38.747Z,76.50
2018-09-17T23:04:08.168Z,76.60
2018-09-17T23:06:36.817Z,76.80
2018-09-17T23:09:08.602Z,76.80
2018-09-17T23:11:37.206Z,76.90
2018-09-17T23:14:05.846Z,76.80
2018-09-17T23:16:34.463Z,77.00
2018-09-17T23:19:03.054Z,77.00
2018-09-17T23:21:31.662Z,77.00
2018-09-17T23:24:01.405Z,77.20
2018-09-17T23:26:30.000Z,77.40
2018-09-17T23:28:58.615Z,77.60
2018-09-17T23:31:27.250Z,78.30
2018-09-17T23:33:55.855Z,77.80
2018-09-17T23:36:24.488Z,77.30
2018-09-17T23:38:53.172Z,77.30
2018-09-17T23:41:21.773Z,77.40
2018-09-17T23:43:50.381Z,77.50
2018-09-17T23:46:19.061Z,77.70
2018-09-17T23:48:47.607Z,77.50
2018-09-17T23:51:16.333Z,77.50
2018-09-17T23:53:44.931Z,77.40
2018-09-17T23:56:13.487Z,77.00
2018-09-17T23:58:42.158Z,77.00
